Terminal Aerodrome Forecast
Issued by NWS

Home | Current Version | Previous Version | Text Only | Print | Product List | Glossary On
Versions: 1 2 3 4 5 6 7 8 9 10 11 12 13 14 15 16 17 18 19 20 21
000
FTUS41 KPBZ 282112 AAB
TAFDUJ
TAF AMD
KDUJ 282112Z 2821/2918 23005KT P6SM VCTS SCT040CB BKN200
      TEMPO 2822/2824 2SM TSRA BKN040CB OVC100
     FM290100 27003KT P6SM BKN150
     FM291000 36005KT P6SM BKN015=

USA.gov is the U.S. government's official web portal to all federal, state and local government web resources and services.